createdAt,value
2022-09-06T00:01:35.181Z,51.72
2022-09-06T00:04:08.120Z,51.68
2022-09-06T00:06:41.566Z,51.81
2022-09-06T00:09:13.086Z,51.38
2022-09-06T00:11:45.130Z,51.58
2022-09-06T00:14:16.655Z,51.62
2022-09-06T00:16:48.602Z,52.09
2022-09-06T00:19:20.139Z,51.52
2022-09-06T00:21:52.056Z,51.47
2022-09-06T00:24:23.590Z,51.41
2022-09-06T00:26:55.445Z,51.66
2022-09-06T00:29:26.979Z,51.53
2022-09-06T00:31:59.800Z,51.61
2022-09-06T00:34:31.348Z,51.44
2022-09-06T00:37:02.886Z,51.39
2022-09-06T00:39:35.198Z,51.85
2022-09-06T00:42:07.109Z,51.88
2022-09-06T00:44:38.688Z,51.91
2022-09-06T00:47:10.512Z,52.23
2022-09-06T00:49:42.048Z,52.23
2022-09-06T00:52:13.948Z,52.70
2022-09-06T00:54:45.479Z,52.93
2022-09-06T00:57:17.355Z,52.84
2022-09-06T00:59:48.937Z,53.41
2022-09-06T01:02:21.007Z,53.40
2022-09-06T01:04:52.777Z,53.04
2022-09-06T01:07:24.619Z,53.23
2022-09-06T01:09:56.201Z,52.81
2022-09-06T01:12:28.101Z,53.37
2022-09-06T01:14:59.642Z,53.35
2022-09-06T01:17:31.198Z,53.45
2022-09-06T01:20:02.730Z,53.83
2022-09-06T01:22:34.741Z,54.00
2022-09-06T01:25:06.277Z,54.00
2022-09-06T01:27:38.147Z,53.67
2022-09-06T01:30:10.012Z,53.93
2022-09-06T01:32:41.928Z,54.03
2022-09-06T01:35:13.783Z,53.85
2022-09-06T01:37:45.296Z,54.46
2022-09-06T01:40:17.165Z,53.81
2022-09-06T01:42:48.721Z,54.75
2022-09-06T01:45:20.564Z,54.18
2022-09-06T01:47:52.122Z,54.00
2022-09-06T01:50:24.322Z,54.05
2022-09-06T01:52:56.063Z,55.06
2022-09-06T01:55:27.999Z,54.54
2022-09-06T01:57:59.527Z,55.04
2022-09-06T02:00:31.454Z,54.78
2022-09-06T02:03:03.000Z,54.62
2022-09-06T02:05:34.984Z,55.33
2022-09-06T02:08:06.519Z,54.92
2022-09-06T02:10:38.720Z,54.82
2022-09-06T02:13:10.252Z,54.55
2022-09-06T02:15:42.075Z,55.04
2022-09-06T02:18:13.595Z,54.46
2022-09-06T02:20:45.731Z,54.30
2022-09-06T02:23:17.246Z,54.94
2022-09-06T02:25:49.094Z,54.73
2022-09-06T02:28:20.722Z,54.93
2022-09-06T02:30:52.796Z,54.75
2022-09-06T02:33:24.369Z,54.58
2022-09-06T02:35:56.311Z,55.09
2022-09-06T02:38:28.010Z,55.04
2022-09-06T02:40:59.888Z,54.74
2022-09-06T02:43:31.442Z,55.00
2022-09-06T02:46:03.532Z,55.33
2022-09-06T02:48:35.134Z,55.64
2022-09-06T02:51:06.840Z,55.84
2022-09-06T02:53:38.413Z,56.21
2022-09-06T02:56:10.277Z,56.44
2022-09-06T02:58:41.840Z,56.76
2022-09-06T03:01:13.507Z,56.25
2022-09-06T03:03:45.541Z,56.54
2022-09-06T03:06:17.459Z,56.75
2022-09-06T03:08:49.028Z,57.05
2022-09-06T03:11:20.882Z,56.78
2022-09-06T03:13:52.712Z,57.06
2022-09-06T03:16:24.692Z,56.85
2022-09-06T03:18:56.291Z,56.73
2022-09-06T03:21:27.827Z,57.45
2022-09-06T03:23:59.381Z,57.58
2022-09-06T03:26:31.346Z,58.02
2022-09-06T03:29:02.865Z,57.28
2022-09-06T03:31:34.742Z,57.72
2022-09-06T03:34:10.780Z,58.73
2022-09-06T03:36:42.892Z,58.82
2022-09-06T03:39:14.457Z,58.84
2022-09-06T03:41:46.387Z,59.53
2022-09-06T03:44:17.927Z,59.12
2022-09-06T03:46:49.904Z,59.83
2022-09-06T03:49:21.418Z,59.61
2022-09-06T03:51:53.465Z,60.01
2022-09-06T03:54:25.005Z,60.27
2022-09-06T03:56:57.786Z,60.70
2022-09-06T03:59:29.315Z,61.56
2022-09-06T04:02:01.213Z,62.22
2022-09-06T04:04:33.181Z,61.60
2022-09-06T04:07:04.686Z,62.21
2022-09-06T04:09:36.656Z,61.95
2022-09-06T04:12:08.169Z,62.21
2022-09-06T04:14:40.029Z,62.61
2022-09-06T04:17:12.437Z,62.43
2022-09-06T04:19:44.302Z,62.41
2022-09-06T04:22:15.867Z,63.39
2022-09-06T04:24:47.800Z,62.83
2022-09-06T04:27:19.309Z,63.44
2022-09-06T04:29:51.166Z,63.23
2022-09-06T04:32:22.677Z,63.70
2022-09-06T04:34:54.559Z,63.52
2022-09-06T04:37:26.095Z,63.60
2022-09-06T04:39:57.920Z,64.03
2022-09-06T04:42:29.475Z,63.76
2022-09-06T04:45:01.059Z,64.36
2022-09-06T04:47:32.645Z,63.95
2022-09-06T04:50:04.179Z,64.45
2022-09-06T04:52:35.768Z,64.24
2022-09-06T04:55:07.758Z,64.11
2022-09-06T04:57:44.476Z,64.63
2022-09-06T05:00:17.662Z,64.31
2022-09-06T05:02:49.190Z,64.74
2022-09-06T05:05:21.155Z,63.33
2022-09-06T05:07:52.946Z,63.53
2022-09-06T05:10:24.873Z,63.86
2022-09-06T05:12:56.518Z,63.76
2022-09-06T05:15:28.366Z,63.08
2022-09-06T05:17:59.874Z,62.93
2022-09-06T05:20:31.863Z,63.40
2022-09-06T05:23:03.378Z,62.70
2022-09-06T05:25:35.365Z,63.03
2022-09-06T05:28:06.878Z,62.59
2022-09-06T05:30:38.767Z,63.11
2022-09-06T05:33:10.291Z,62.54
2022-09-06T05:35:42.211Z,61.92
2022-09-06T05:38:13.799Z,61.85
2022-09-06T05:40:45.905Z,61.60
2022-09-06T05:43:17.465Z,60.86
2022-09-06T05:45:49.484Z,60.27
2022-09-06T05:48:21.034Z,60.46
2022-09-06T05:50:53.016Z,59.86
2022-09-06T05:53:24.605Z,59.38
2022-09-06T05:55:56.476Z,59.20
2022-09-06T05:58:28.080Z,59.31
2022-09-06T06:01:00.029Z,59.04
2022-09-06T06:03:31.556Z,58.92
2022-09-06T06:06:03.449Z,58.81
2022-09-06T06:08:34.975Z,59.14
2022-09-06T06:11:06.823Z,59.14
2022-09-06T06:13:39.699Z,57.93
2022-09-06T06:16:11.619Z,57.99
2022-09-06T06:18:47.610Z,57.62
2022-09-06T06:21:22.099Z,57.31
2022-09-06T06:23:54.131Z,56.97
2022-09-06T06:26:25.655Z,56.86
2022-09-06T06:28:59.314Z,56.23
2022-09-06T06:31:30.949Z,56.89
2022-09-06T06:34:04.507Z,55.70
2022-09-06T06:36:36.064Z,55.91
2022-09-06T06:39:08.698Z,55.79
2022-09-06T06:41:40.221Z,55.66
2022-09-06T06:44:12.306Z,54.66
2022-09-06T06:46:43.879Z,54.03
2022-09-06T06:49:15.730Z,54.28
2022-09-06T06:51:47.279Z,53.93
2022-09-06T06:54:18.912Z,52.84
2022-09-06T06:56:50.521Z,53.04
2022-09-06T06:59:22.386Z,53.62
2022-09-06T07:01:54.040Z,53.40
2022-09-06T07:04:26.035Z,53.11
2022-09-06T07:12:41.722Z,52.36
2022-09-06T07:15:13.813Z,52.58
2022-09-06T07:17:45.322Z,51.95
2022-09-06T07:20:17.439Z,52.21
2022-09-06T07:22:49.350Z,51.17
2022-09-06T07:25:21.656Z,51.68
2022-09-06T07:27:53.315Z,50.99
2022-09-06T07:30:25.240Z,51.24
2022-09-06T07:32:56.807Z,51.10
2022-09-06T07:35:28.678Z,50.84
2022-09-06T07:38:00.264Z,50.89
2022-09-06T07:40:32.213Z,50.60
2022-09-06T07:43:03.773Z,51.13
2022-09-06T07:45:35.916Z,50.19
2022-09-06T07:48:07.455Z,49.91
2022-09-06T07:50:47.392Z,49.48
2022-09-06T07:53:30.283Z,50.21
2022-09-06T07:56:02.744Z,50.67
2022-09-06T07:58:34.372Z,50.69
2022-09-06T08:01:06.269Z,50.69
2022-09-06T08:03:37.902Z,50.44
2022-09-06T08:06:10.335Z,50.70
2022-09-06T08:08:58.321Z,50.27
2022-09-06T08:11:30.643Z,50.93
2022-09-06T08:14:03.856Z,50.67
2022-09-06T08:16:37.019Z,49.87
2022-09-06T08:19:09.960Z,50.02
2022-09-06T08:21:43.656Z,50.18
2022-09-06T08:24:16.979Z,49.45
2022-09-06T08:26:50.108Z,49.67
2022-09-06T08:29:23.509Z,49.48
2022-09-06T08:31:55.145Z,49.18
2022-09-06T08:34:27.067Z,49.72
2022-09-06T08:36:58.620Z,48.09
2022-09-06T08:39:30.527Z,47.63
2022-09-06T08:42:03.006Z,48.53
2022-09-06T08:47:26.571Z,48.63
2022-09-06T08:49:58.209Z,48.39
2022-09-06T08:52:29.795Z,47.32
2022-09-06T08:55:01.347Z,46.47
2022-09-06T08:57:34.953Z,47.04
2022-09-06T09:00:11.093Z,47.68
2022-09-06T09:02:42.732Z,47.34
2022-09-06T09:05:14.666Z,47.57
2022-09-06T09:07:46.186Z,48.22
2022-09-06T09:10:18.113Z,48.33
2022-09-06T09:12:49.695Z,47.98
2022-09-06T09:15:21.608Z,47.50
2022-09-06T09:17:53.200Z,47.32
2022-09-06T09:20:25.050Z,47.58
2022-09-06T09:22:56.559Z,47.82
2022-09-06T09:25:28.515Z,47.93
2022-09-06T09:28:00.572Z,46.82
2022-09-06T09:30:47.775Z,47.06
2022-09-06T09:33:20.376Z,46.48
2022-09-06T09:35:52.656Z,46.71
2022-09-06T09:38:24.591Z,47.11
2022-09-06T09:40:56.290Z,47.43
2022-09-06T09:43:28.191Z,46.78
2022-09-06T09:45:59.741Z,46.31
2022-09-06T09:48:31.643Z,47.02
2022-09-06T09:51:03.162Z,46.57
2022-09-06T09:53:35.093Z,46.26
2022-09-06T09:56:06.648Z,46.83
2022-09-06T09:58:38.597Z,46.48
2022-09-06T10:01:10.234Z,46.76
2022-09-06T10:09:25.516Z,46.13
2022-09-06T10:11:57.043Z,45.68
2022-09-06T10:14:28.935Z,46.04
2022-09-06T10:17:00.647Z,46.31
2022-09-06T10:19:32.690Z,45.93
2022-09-06T10:22:04.202Z,46.93
2022-09-06T10:24:36.135Z,46.97
2022-09-06T10:27:08.314Z,46.79
2022-09-06T10:29:40.233Z,47.30
2022-09-06T10:32:12.037Z,47.33
2022-09-06T10:34:43.651Z,47.25
2022-09-06T10:37:15.568Z,47.27
2022-09-06T10:39:47.154Z,46.85
2022-09-06T10:42:20.159Z,45.97
2022-09-06T10:44:51.685Z,46.57
2022-09-06T10:47:23.760Z,45.80
2022-09-06T10:49:55.355Z,44.62
2022-09-06T10:52:27.167Z,43.70
2022-09-06T10:55:02.143Z,43.59
2022-09-06T11:00:27.128Z,43.83
2022-09-06T11:05:50.526Z,42.03
2022-09-06T11:11:13.605Z,41.57
2022-09-06T11:13:45.898Z,41.22
2022-09-06T11:16:17.582Z,41.76
2022-09-06T11:18:49.803Z,41.71
2022-09-06T11:21:21.391Z,42.12
2022-09-06T11:23:53.362Z,42.39
2022-09-06T11:26:24.866Z,43.30
2022-09-06T11:28:56.716Z,43.60
2022-09-06T11:34:21.101Z,44.79
2022-09-06T11:36:53.246Z,44.73
2022-09-06T11:42:16.706Z,44.62
2022-09-06T11:44:48.233Z,45.01
2022-09-06T11:47:20.115Z,44.94
2022-09-06T11:49:52.427Z,45.17
2022-09-06T11:52:24.293Z,45.04
2022-09-06T11:54:55.840Z,44.74
2022-09-06T11:57:27.874Z,44.09
2022-09-06T12:00:00.490Z,43.95
2022-09-06T12:02:32.576Z,43.73
2022-09-06T12:05:07.217Z,44.17
2022-09-06T12:07:39.272Z,44.50
2022-09-06T12:10:10.794Z,44.34
2022-09-06T12:12:42.624Z,44.92
2022-09-06T12:15:14.130Z,44.42
2022-09-06T12:17:45.998Z,44.00
2022-09-06T12:20:17.520Z,44.03
2022-09-06T12:22:49.449Z,43.98
2022-09-06T12:25:21.178Z,44.21
2022-09-06T12:27:53.234Z,43.89
2022-09-06T12:30:24.766Z,43.92
2022-09-06T12:32:56.770Z,43.84
2022-09-06T12:38:20.103Z,43.00
2022-09-06T12:40:52.406Z,43.22
2022-09-06T12:43:24.281Z,43.10
2022-09-06T12:45:55.805Z,42.34
2022-09-06T12:48:27.816Z,41.28
2022-09-06T12:50:59.489Z,42.03
2022-09-06T12:53:31.979Z,41.78
2022-09-06T12:56:04.299Z,41.32
2022-09-06T12:58:35.852Z,40.58
2022-09-06T13:01:07.751Z,40.49
2022-09-06T13:03:39.363Z,40.88
2022-09-06T13:06:11.380Z,40.81
2022-09-06T13:08:42.933Z,40.60
2022-09-06T13:11:14.826Z,41.05
2022-09-06T13:13:46.347Z,40.72
2022-09-06T13:16:18.263Z,41.27
2022-09-06T13:18:50.057Z,41.42
2022-09-06T13:21:22.208Z,40.92
2022-09-06T13:23:53.820Z,41.21
2022-09-06T13:26:25.717Z,42.10
2022-09-06T13:28:57.272Z,42.00
2022-09-06T13:31:29.767Z,42.03
2022-09-06T13:34:01.323Z,42.09
2022-09-06T13:36:33.217Z,41.88
2022-09-06T13:39:04.791Z,40.63
2022-09-06T13:41:36.650Z,39.35
2022-09-06T13:44:08.216Z,38.26
2022-09-06T13:46:40.168Z,39.17
2022-09-06T13:49:11.787Z,39.28
2022-09-06T13:51:43.822Z,39.70
2022-09-06T13:54:15.658Z,41.04
2022-09-06T13:56:48.811Z,40.71
2022-09-06T13:59:20.338Z,41.53
2022-09-06T14:01:52.260Z,40.33
2022-09-06T14:04:24.044Z,40.70
2022-09-06T14:06:55.874Z,40.53
2022-09-06T14:09:27.717Z,41.19
2022-09-06T14:11:59.360Z,41.81
2022-09-06T14:14:31.388Z,41.92
2022-09-06T14:17:02.965Z,41.07
2022-09-06T14:19:34.985Z,41.33
2022-09-06T14:22:07.290Z,40.81
2022-09-06T14:24:39.553Z,40.94
2022-09-06T14:27:11.090Z,41.01
2022-09-06T14:29:43.041Z,41.51
2022-09-06T14:32:17.248Z,42.72
2022-09-06T14:34:51.161Z,42.93
2022-09-06T14:37:22.706Z,41.79
2022-09-06T14:39:54.827Z,41.88
2022-09-06T14:42:28.300Z,40.47
2022-09-06T14:44:59.869Z,40.08
2022-09-06T14:47:31.879Z,39.19
2022-09-06T14:50:03.843Z,38.84
2022-09-06T14:52:35.353Z,38.59
2022-09-06T14:55:07.260Z,39.57
2022-09-06T14:57:38.809Z,41.02
2022-09-06T15:00:11.029Z,40.53
2022-09-06T15:02:44.063Z,39.95
2022-09-06T15:05:15.702Z,39.46
2022-09-06T15:07:47.707Z,41.17
2022-09-06T15:10:19.682Z,41.69
2022-09-06T15:12:51.383Z,42.40
2022-09-06T15:15:24.121Z,43.73
2022-09-06T15:17:55.737Z,43.75
2022-09-06T15:20:27.621Z,43.01
2022-09-06T15:23:15.178Z,43.36
2022-09-06T15:25:51.044Z,43.74
2022-09-06T15:28:22.618Z,43.80
2022-09-06T15:30:54.998Z,44.60
2022-09-06T15:33:26.634Z,45.18
2022-09-06T15:35:58.578Z,45.22
2022-09-06T15:38:30.123Z,45.63
2022-09-06T15:41:07.347Z,45.32
2022-09-06T15:43:41.356Z,45.83
2022-09-06T15:46:12.902Z,46.30
2022-09-06T15:48:44.791Z,46.26
2022-09-06T15:51:16.313Z,46.86
2022-09-06T15:53:48.161Z,47.09
2022-09-06T15:56:19.696Z,47.14
2022-09-06T15:58:51.277Z,47.03
2022-09-06T16:01:22.851Z,47.56
2022-09-06T16:03:54.781Z,47.50
2022-09-06T16:06:27.250Z,48.16
2022-09-06T16:09:00.991Z,48.23
2022-09-06T16:11:36.816Z,48.60
2022-09-06T16:14:08.924Z,49.29
2022-09-06T16:16:41.054Z,49.49
2022-09-06T16:19:13.092Z,49.50
2022-09-06T16:21:44.680Z,49.50
2022-09-06T16:24:16.657Z,49.98
2022-09-06T16:26:48.260Z,50.11
2022-09-06T16:29:20.668Z,49.75
2022-09-06T16:31:59.418Z,50.16
2022-09-06T16:34:31.050Z,50.37
2022-09-06T16:37:07.776Z,50.21
2022-09-06T16:39:39.458Z,49.99
2022-09-06T16:42:12.494Z,50.33
2022-09-06T16:44:44.354Z,50.09
2022-09-06T16:47:16.800Z,50.09
2022-09-06T16:49:49.004Z,50.48
2022-09-06T16:52:20.551Z,50.47
2022-09-06T16:54:52.590Z,50.33
2022-09-06T16:57:24.840Z,50.63
2022-09-06T16:59:56.745Z,50.84
2022-09-06T17:02:28.350Z,50.99
2022-09-06T17:05:00.268Z,51.32
2022-09-06T17:07:31.840Z,51.47
2022-09-06T17:10:03.691Z,51.43
2022-09-06T17:12:35.270Z,51.61
2022-09-06T17:15:07.128Z,51.78
2022-09-06T17:17:38.914Z,51.79
2022-09-06T17:20:10.842Z,51.79
2022-09-06T17:22:42.352Z,51.97
2022-09-06T17:25:15.083Z,52.08
2022-09-06T17:27:46.628Z,52.29
2022-09-06T17:30:18.684Z,52.13
2022-09-06T17:32:50.204Z,52.49
2022-09-06T17:35:22.318Z,52.63
2022-09-06T17:37:53.825Z,52.81
2022-09-06T17:40:25.632Z,52.43
2022-09-06T17:42:57.158Z,52.79
2022-09-06T17:45:29.304Z,52.95
2022-09-06T17:48:00.854Z,52.71
2022-09-06T17:50:32.664Z,52.84
2022-09-06T17:53:04.457Z,52.84
2022-09-06T17:55:36.231Z,53.15
2022-09-06T17:58:08.340Z,52.85
2022-09-06T18:00:40.614Z,52.69
2022-09-06T18:03:12.440Z,52.83
2022-09-06T18:05:45.689Z,52.46
2022-09-06T18:08:17.238Z,52.34
2022-09-06T18:10:49.154Z,52.34
2022-09-06T18:13:20.774Z,52.10
2022-09-06T18:15:52.387Z,52.26
2022-09-06T18:18:23.928Z,52.05
2022-09-06T18:20:55.493Z,52.00
2022-09-06T18:23:27.447Z,51.98
2022-09-06T18:25:59.166Z,52.06
2022-09-06T18:28:31.766Z,52.24
2022-09-06T18:31:03.326Z,52.77
2022-09-06T18:33:35.306Z,52.66
2022-09-06T18:36:06.948Z,52.70
2022-09-06T18:38:38.552Z,52.75
2022-09-06T18:41:10.230Z,53.04
2022-09-06T18:43:43.325Z,53.12
2022-09-06T18:46:16.040Z,52.79
2022-09-06T18:48:48.450Z,53.11
2022-09-06T18:51:20.172Z,52.98
2022-09-06T18:53:58.248Z,52.85
2022-09-06T18:56:29.966Z,52.41
2022-09-06T18:59:02.496Z,52.34
2022-09-06T19:01:35.113Z,51.80
2022-09-06T19:04:07.255Z,51.83
2022-09-06T19:06:38.907Z,51.57
2022-09-06T19:09:10.987Z,51.34
2022-09-06T19:11:43.552Z,51.24
2022-09-06T19:14:15.513Z,51.34
2022-09-06T19:16:48.618Z,51.11
2022-09-06T19:19:23.715Z,51.25
2022-09-06T19:21:55.366Z,50.89
2022-09-06T19:24:27.305Z,50.58
2022-09-06T19:26:58.982Z,51.07
2022-09-06T19:29:32.023Z,51.16
2022-09-06T19:32:04.155Z,51.31
2022-09-06T19:34:36.044Z,51.00
2022-09-06T19:37:07.772Z,51.09
2022-09-06T19:39:39.475Z,51.15
2022-09-06T19:42:11.464Z,50.99
2022-09-06T19:44:44.538Z,50.78
2022-09-06T19:47:16.233Z,50.95
2022-09-06T19:49:48.337Z,51.21
2022-09-06T19:52:22.526Z,51.17
2022-09-06T19:54:54.539Z,51.19
2022-09-06T19:57:26.103Z,51.29
2022-09-06T19:59:58.051Z,51.23
2022-09-06T20:02:29.635Z,51.66
2022-09-06T20:05:02.450Z,51.66
2022-09-06T20:07:34.024Z,51.63
2022-09-06T20:10:06.867Z,51.95
2022-09-06T20:12:39.606Z,51.56
2022-09-06T20:15:11.466Z,51.90
2022-09-06T20:17:42.954Z,52.25
2022-09-06T20:20:15.353Z,52.23
2022-09-06T20:22:47.868Z,52.35
2022-09-06T20:25:19.439Z,52.37
2022-09-06T20:27:51.247Z,52.89
2022-09-06T20:30:22.803Z,52.80
2022-09-06T20:32:54.698Z,52.79
2022-09-06T20:35:26.188Z,52.97
2022-09-06T20:37:58.067Z,53.04
2022-09-06T20:40:29.619Z,53.36
2022-09-06T20:43:02.528Z,53.40
2022-09-06T20:45:34.013Z,53.73
2022-09-06T20:48:05.840Z,53.69
2022-09-06T20:50:37.353Z,53.88
2022-09-06T20:53:08.855Z,54.29
2022-09-06T20:55:40.374Z,54.30
2022-09-06T20:58:12.276Z,54.15
2022-09-06T21:00:43.790Z,53.89
2022-09-06T21:03:15.579Z,54.26
2022-09-06T21:05:47.115Z,54.29
2022-09-06T21:08:19.050Z,54.36
2022-09-06T21:10:50.549Z,54.34
2022-09-06T21:13:22.386Z,54.32
2022-09-06T21:15:54.428Z,54.27
2022-09-06T21:18:26.754Z,54.33
2022-09-06T21:20:58.370Z,54.77
2022-09-06T21:23:29.948Z,54.81
2022-09-06T21:26:01.810Z,54.69
2022-09-06T21:28:33.712Z,54.70
2022-09-06T21:31:05.965Z,55.42
2022-09-06T21:33:38.044Z,54.91
2022-09-06T21:36:09.772Z,55.31
2022-09-06T21:38:42.319Z,55.36
2022-09-06T21:41:13.832Z,55.16
2022-09-06T21:43:45.523Z,55.57
2022-09-06T21:46:17.136Z,55.58
2022-09-06T21:48:48.765Z,55.43
2022-09-06T21:51:20.255Z,55.22
2022-09-06T21:53:51.775Z,55.05
2022-09-06T21:56:23.853Z,54.81
2022-09-06T21:58:55.995Z,54.98
2022-09-06T22:01:27.509Z,54.94
2022-09-06T22:03:59.332Z,54.49
2022-09-06T22:06:30.915Z,54.92
2022-09-06T22:09:02.798Z,54.87
2022-09-06T22:11:34.362Z,55.01
2022-09-06T22:14:06.213Z,54.63
2022-09-06T22:16:37.775Z,54.93
2022-09-06T22:19:10.025Z,54.32
2022-09-06T22:21:41.592Z,54.17
2022-09-06T22:24:13.220Z,54.43
2022-09-06T22:26:45.499Z,54.34
2022-09-06T22:29:17.102Z,54.47
2022-09-06T22:31:48.661Z,54.55
2022-09-06T22:34:20.536Z,54.33
2022-09-06T22:36:52.032Z,54.86
2022-09-06T22:39:23.933Z,54.23
2022-09-06T22:41:55.551Z,54.51
2022-09-06T22:44:27.636Z,54.35
2022-09-06T22:46:59.194Z,54.73
2022-09-06T22:49:31.179Z,54.33
2022-09-06T22:52:02.698Z,54.83
2022-09-06T22:54:34.679Z,54.45
2022-09-06T22:57:06.158Z,54.73
2022-09-06T22:59:37.974Z,54.66
2022-09-06T23:02:09.472Z,54.95
2022-09-06T23:04:41.293Z,54.97
2022-09-06T23:07:13.231Z,54.69
2022-09-06T23:09:45.072Z,54.46
2022-09-06T23:12:16.876Z,54.41
2022-09-06T23:14:48.446Z,54.42
2022-09-06T23:17:20.397Z,54.75
2022-09-06T23:19:51.932Z,54.61
2022-09-06T23:22:23.794Z,54.65
2022-09-06T23:24:55.297Z,54.97
2022-09-06T23:27:27.085Z,54.39
2022-09-06T23:29:58.977Z,54.84
2022-09-06T23:32:30.495Z,54.97
2022-09-06T23:35:01.994Z,54.92
2022-09-06T23:37:33.983Z,55.05
2022-09-06T23:40:08.966Z,55.28
2022-09-06T23:42:41.269Z,55.14
2022-09-06T23:45:12.794Z,54.95
2022-09-06T23:47:44.607Z,54.42
2022-09-06T23:50:16.106Z,55.25
2022-09-06T23:52:47.672Z,55.26
2022-09-06T23:55:19.180Z,54.73
2022-09-06T23:57:51.111Z,55.25
